sensor_id;sensor_type;location;lat;lon;timestamp;P1;durP1;ratioP1;P2;durP2;ratioP2
73816;SDS011;62146;53.232;-1.304;2023-05-07T00:00:54;5.13;;;2.25;;
73816;SDS011;62146;53.232;-1.304;2023-05-07T00:03:21;4.43;;;2.20;;
73816;SDS011;62146;53.232;-1.304;2023-05-07T00:05:48;4.65;;;2.17;;
73816;SDS011;62146;53.232;-1.304;2023-05-07T00:08:15;4.23;;;2.23;;
73816;SDS011;62146;53.232;-1.304;2023-05-07T00:10:41;4.55;;;2.25;;
73816;SDS011;62146;53.232;-1.304;2023-05-07T00:13:08;3.78;;;2.10;;
73816;SDS011;62146;53.232;-1.304;2023-05-07T00:15:35;3.90;;;2.30;;
73816;SDS011;62146;53.232;-1.304;2023-05-07T00:18:01;5.18;;;2.35;;
73816;SDS011;62146;53.232;-1.304;2023-05-07T00:20:28;4.03;;;2.40;;
73816;SDS011;62146;53.232;-1.304;2023-05-07T00:22:55;4.85;;;2.25;;
73816;SDS011;62146;53.232;-1.304;2023-05-07T00:25:21;4.13;;;2.30;;
73816;SDS011;62146;53.232;-1.304;2023-05-07T00:27:48;4.10;;;2.30;;
73816;SDS011;62146;53.232;-1.304;2023-05-07T00:30:15;5.25;;;2.30;;
73816;SDS011;62146;53.232;-1.304;2023-05-07T00:32:41;3.97;;;2.30;;
73816;SDS011;62146;53.232;-1.304;2023-05-07T00:35:08;4.63;;;2.28;;
73816;SDS011;62146;53.232;-1.304;2023-05-07T00:37:35;4.35;;;2.28;;
73816;SDS011;62146;53.232;-1.304;2023-05-07T00:40:02;3.70;;;2.05;;
73816;SDS011;62146;53.232;-1.304;2023-05-07T00:42:30;3.80;;;2.20;;
73816;SDS011;62146;53.232;-1.304;2023-05-07T00:44:58;5.40;;;2.30;;
73816;SDS011;62146;53.232;-1.304;2023-05-07T00:47:25;3.90;;;2.20;;
73816;SDS011;62146;53.232;-1.304;2023-05-07T00:49:52;5.15;;;1.98;;
73816;SDS011;62146;53.232;-1.304;2023-05-07T00:52:19;3.28;;;1.80;;
73816;SDS011;62146;53.232;-1.304;2023-05-07T00:54:47;3.75;;;1.52;;
73816;SDS011;62146;53.232;-1.304;2023-05-07T00:57:14;5.70;;;1.67;;
73816;SDS011;62146;53.232;-1.304;2023-05-07T00:59:41;4.30;;;2.03;;
73816;SDS011;62146;53.232;-1.304;2023-05-07T01:02:08;4.15;;;1.85;;
73816;SDS011;62146;53.232;-1.304;2023-05-07T01:04:34;3.78;;;1.77;;
73816;SDS011;62146;53.232;-1.304;2023-05-07T01:07:02;5.38;;;2.22;;
73816;SDS011;62146;53.232;-1.304;2023-05-07T01:09:29;3.80;;;1.90;;
73816;SDS011;62146;53.232;-1.304;2023-05-07T01:11:56;3.85;;;2.05;;
73816;SDS011;62146;53.232;-1.304;2023-05-07T01:14:24;4.25;;;1.80;;
73816;SDS011;62146;53.232;-1.304;2023-05-07T01:16:52;4.10;;;2.10;;
73816;SDS011;62146;53.232;-1.304;2023-05-07T01:19:19;4.32;;;1.85;;
73816;SDS011;62146;53.232;-1.304;2023-05-07T01:21:47;3.80;;;1.90;;
73816;SDS011;62146;53.232;-1.304;2023-05-07T01:24:15;4.80;;;2.03;;
73816;SDS011;62146;53.232;-1.304;2023-05-07T01:26:42;4.43;;;2.13;;
73816;SDS011;62146;53.232;-1.304;2023-05-07T01:29:10;3.65;;;1.80;;
73816;SDS011;62146;53.232;-1.304;2023-05-07T01:31:37;4.05;;;1.88;;
73816;SDS011;62146;53.232;-1.304;2023-05-07T01:34:04;4.27;;;1.90;;
73816;SDS011;62146;53.232;-1.304;2023-05-07T01:36:34;4.38;;;2.10;;
73816;SDS011;62146;53.232;-1.304;2023-05-07T01:39:05;5.78;;;2.17;;
73816;SDS011;62146;53.232;-1.304;2023-05-07T01:41:32;4.13;;;1.80;;
73816;SDS011;62146;53.232;-1.304;2023-05-07T01:43:59;4.18;;;1.98;;
73816;SDS011;62146;53.232;-1.304;2023-05-07T01:46:26;4.13;;;2.03;;
73816;SDS011;62146;53.232;-1.304;2023-05-07T01:48:54;4.55;;;2.05;;
73816;SDS011;62146;53.232;-1.304;2023-05-07T01:51:21;4.00;;;2.17;;
73816;SDS011;62146;53.232;-1.304;2023-05-07T01:53:48;4.28;;;2.00;;
73816;SDS011;62146;53.232;-1.304;2023-05-07T01:56:17;4.43;;;2.17;;
73816;SDS011;62146;53.232;-1.304;2023-05-07T01:58:47;4.70;;;2.20;;
73816;SDS011;62146;53.232;-1.304;2023-05-07T02:01:14;4.32;;;2.20;;
73816;SDS011;62146;53.232;-1.304;2023-05-07T02:03:41;4.30;;;2.20;;
73816;SDS011;62146;53.232;-1.304;2023-05-07T02:06:08;4.90;;;2.30;;
73816;SDS011;62146;53.232;-1.304;2023-05-07T02:08:34;5.95;;;2.45;;
73816;SDS011;62146;53.232;-1.304;2023-05-07T02:11:01;8.90;;;2.60;;
73816;SDS011;62146;53.232;-1.304;2023-05-07T02:13:29;4.70;;;2.55;;
73816;SDS011;62146;53.232;-1.304;2023-05-07T02:15:57;5.03;;;2.58;;
73816;SDS011;62146;53.232;-1.304;2023-05-07T02:18:24;4.43;;;2.53;;
73816;SDS011;62146;53.232;-1.304;2023-05-07T02:20:51;4.80;;;2.60;;
73816;SDS011;62146;53.232;-1.304;2023-05-07T02:23:17;5.60;;;2.70;;
73816;SDS011;62146;53.232;-1.304;2023-05-07T02:25:44;4.28;;;2.38;;
73816;SDS011;62146;53.232;-1.304;2023-05-07T02:28:12;6.05;;;2.38;;
73816;SDS011;62146;53.232;-1.304;2023-05-07T02:30:39;4.78;;;2.33;;
73816;SDS011;62146;53.232;-1.304;2023-05-07T02:33:06;4.20;;;2.40;;
73816;SDS011;62146;53.232;-1.304;2023-05-07T02:35:34;4.77;;;2.37;;
73816;SDS011;62146;53.232;-1.304;2023-05-07T02:38:01;5.05;;;2.50;;
73816;SDS011;62146;53.232;-1.304;2023-05-07T02:40:28;4.65;;;2.40;;
73816;SDS011;62146;53.232;-1.304;2023-05-07T02:42:54;4.63;;;2.60;;
73816;SDS011;62146;53.232;-1.304;2023-05-07T02:45:21;6.28;;;2.80;;
73816;SDS011;62146;53.232;-1.304;2023-05-07T02:47:47;5.07;;;2.50;;
73816;SDS011;62146;53.232;-1.304;2023-05-07T02:50:14;5.90;;;2.67;;
73816;SDS011;62146;53.232;-1.304;2023-05-07T02:52:41;5.20;;;2.88;;
73816;SDS011;62146;53.232;-1.304;2023-05-07T02:55:07;4.65;;;2.50;;
73816;SDS011;62146;53.232;-1.304;2023-05-07T02:57:34;6.07;;;2.55;;
73816;SDS011;62146;53.232;-1.304;2023-05-07T03:00:09;5.23;;;2.40;;
73816;SDS011;62146;53.232;-1.304;2023-05-07T03:02:37;4.95;;;2.92;;
73816;SDS011;62146;53.232;-1.304;2023-05-07T03:05:04;5.00;;;2.83;;
73816;SDS011;62146;53.232;-1.304;2023-05-07T03:07:31;5.00;;;2.80;;
73816;SDS011;62146;53.232;-1.304;2023-05-07T03:09:58;5.13;;;2.80;;
73816;SDS011;62146;53.232;-1.304;2023-05-07T03:12:24;6.10;;;2.93;;
73816;SDS011;62146;53.232;-1.304;2023-05-07T03:14:51;5.65;;;2.80;;
73816;SDS011;62146;53.232;-1.304;2023-05-07T03:17:17;5.53;;;2.70;;
73816;SDS011;62146;53.232;-1.304;2023-05-07T03:19:44;5.07;;;2.70;;
73816;SDS011;62146;53.232;-1.304;2023-05-07T03:22:10;4.88;;;2.53;;
73816;SDS011;62146;53.232;-1.304;2023-05-07T03:24:37;5.50;;;2.63;;
73816;SDS011;62146;53.232;-1.304;2023-05-07T03:27:04;5.90;;;2.72;;
73816;SDS011;62146;53.232;-1.304;2023-05-07T03:29:30;5.95;;;3.17;;
73816;SDS011;62146;53.232;-1.304;2023-05-07T03:31:57;5.03;;;2.80;;
73816;SDS011;62146;53.232;-1.304;2023-05-07T03:34:23;5.00;;;2.80;;
73816;SDS011;62146;53.232;-1.304;2023-05-07T03:36:50;6.47;;;2.90;;
73816;SDS011;62146;53.232;-1.304;2023-05-07T03:39:17;6.43;;;3.00;;
73816;SDS011;62146;53.232;-1.304;2023-05-07T03:41:43;5.38;;;2.70;;
73816;SDS011;62146;53.232;-1.304;2023-05-07T03:44:10;5.93;;;2.75;;
73816;SDS011;62146;53.232;-1.304;2023-05-07T03:46:36;5.68;;;3.13;;
73816;SDS011;62146;53.232;-1.304;2023-05-07T03:49:03;4.80;;;2.47;;
73816;SDS011;62146;53.232;-1.304;2023-05-07T03:51:30;5.65;;;2.97;;
73816;SDS011;62146;53.232;-1.304;2023-05-07T03:53:56;6.28;;;3.20;;
73816;SDS011;62146;53.232;-1.304;2023-05-07T03:56:23;6.38;;;2.95;;
73816;SDS011;62146;53.232;-1.304;2023-05-07T03:58:52;6.25;;;3.10;;
73816;SDS011;62146;53.232;-1.304;2023-05-07T04:01:19;5.67;;;2.97;;
73816;SDS011;62146;53.232;-1.304;2023-05-07T04:03:46;5.60;;;2.90;;
73816;SDS011;62146;53.232;-1.304;2023-05-07T04:06:13;5.93;;;3.25;;
73816;SDS011;62146;53.232;-1.304;2023-05-07T04:08:39;5.40;;;3.13;;
73816;SDS011;62146;53.232;-1.304;2023-05-07T04:11:06;6.03;;;3.20;;
73816;SDS011;62146;53.232;-1.304;2023-05-07T04:13:32;5.73;;;3.20;;
73816;SDS011;62146;53.232;-1.304;2023-05-07T04:16:00;5.82;;;3.35;;
73816;SDS011;62146;53.232;-1.304;2023-05-07T04:18:28;6.40;;;3.60;;
73816;SDS011;62146;53.232;-1.304;2023-05-07T04:20:55;6.35;;;3.22;;
73816;SDS011;62146;53.232;-1.304;2023-05-07T04:23:21;6.70;;;3.25;;
73816;SDS011;62146;53.232;-1.304;2023-05-07T04:25:48;6.33;;;3.50;;
73816;SDS011;62146;53.232;-1.304;2023-05-07T04:28:14;6.28;;;3.67;;
73816;SDS011;62146;53.232;-1.304;2023-05-07T04:30:41;6.20;;;3.58;;
73816;SDS011;62146;53.232;-1.304;2023-05-07T04:33:08;6.95;;;3.80;;
73816;SDS011;62146;53.232;-1.304;2023-05-07T04:35:35;6.03;;;3.47;;
73816;SDS011;62146;53.232;-1.304;2023-05-07T04:38:01;6.83;;;3.30;;
73816;SDS011;62146;53.232;-1.304;2023-05-07T04:40:28;7.38;;;3.83;;
73816;SDS011;62146;53.232;-1.304;2023-05-07T04:42:54;7.85;;;4.00;;
73816;SDS011;62146;53.232;-1.304;2023-05-07T04:45:21;6.72;;;3.80;;
73816;SDS011;62146;53.232;-1.304;2023-05-07T04:47:48;6.50;;;3.80;;
73816;SDS011;62146;53.232;-1.304;2023-05-07T04:50:14;6.47;;;3.97;;
73816;SDS011;62146;53.232;-1.304;2023-05-07T04:52:41;5.82;;;3.30;;
73816;SDS011;62146;53.232;-1.304;2023-05-07T04:55:07;7.78;;;3.70;;
73816;SDS011;62146;53.232;-1.304;2023-05-07T04:57:34;6.35;;;3.45;;
73816;SDS011;62146;53.232;-1.304;2023-05-07T05:00:01;7.80;;;3.83;;
73816;SDS011;62146;53.232;-1.304;2023-05-07T05:02:27;7.23;;;3.50;;
73816;SDS011;62146;53.232;-1.304;2023-05-07T05:04:54;7.10;;;4.05;;
73816;SDS011;62146;53.232;-1.304;2023-05-07T05:07:20;6.50;;;3.58;;
73816;SDS011;62146;53.232;-1.304;2023-05-07T05:09:47;6.70;;;3.60;;
73816;SDS011;62146;53.232;-1.304;2023-05-07T05:12:13;6.38;;;3.55;;
73816;SDS011;62146;53.232;-1.304;2023-05-07T05:14:40;6.13;;;3.57;;
73816;SDS011;62146;53.232;-1.304;2023-05-07T05:17:07;5.72;;;3.35;;
73816;SDS011;62146;53.232;-1.304;2023-05-07T05:19:33;6.07;;;3.30;;
73816;SDS011;62146;53.232;-1.304;2023-05-07T05:22:00;5.25;;;3.03;;
73816;SDS011;62146;53.232;-1.304;2023-05-07T05:24:27;6.55;;;3.60;;
73816;SDS011;62146;53.232;-1.304;2023-05-07T05:26:53;5.87;;;3.10;;
73816;SDS011;62146;53.232;-1.304;2023-05-07T05:29:20;5.50;;;3.08;;
73816;SDS011;62146;53.232;-1.304;2023-05-07T05:31:47;5.57;;;3.30;;
73816;SDS011;62146;53.232;-1.304;2023-05-07T05:34:14;6.18;;;3.35;;
73816;SDS011;62146;53.232;-1.304;2023-05-07T05:36:41;6.25;;;3.05;;
73816;SDS011;62146;53.232;-1.304;2023-05-07T05:39:08;5.07;;;2.80;;
73816;SDS011;62146;53.232;-1.304;2023-05-07T05:41:34;6.18;;;3.30;;
73816;SDS011;62146;53.232;-1.304;2023-05-07T05:44:01;5.38;;;3.08;;
73816;SDS011;62146;53.232;-1.304;2023-05-07T05:46:27;5.63;;;3.22;;
73816;SDS011;62146;53.232;-1.304;2023-05-07T05:48:54;5.32;;;3.05;;
73816;SDS011;62146;53.232;-1.304;2023-05-07T05:51:21;5.87;;;2.90;;
73816;SDS011;62146;53.232;-1.304;2023-05-07T05:53:47;5.38;;;3.13;;
73816;SDS011;62146;53.232;-1.304;2023-05-07T05:56:15;5.85;;;3.08;;
73816;SDS011;62146;53.232;-1.304;2023-05-07T05:58:42;6.80;;;3.63;;
73816;SDS011;62146;53.232;-1.304;2023-05-07T06:01:09;5.20;;;2.90;;
73816;SDS011;62146;53.232;-1.304;2023-05-07T06:03:37;6.17;;;3.20;;
73816;SDS011;62146;53.232;-1.304;2023-05-07T06:06:04;6.45;;;3.28;;
73816;SDS011;62146;53.232;-1.304;2023-05-07T06:08:30;6.20;;;3.40;;
73816;SDS011;62146;53.232;-1.304;2023-05-07T06:10:57;6.65;;;3.10;;
73816;SDS011;62146;53.232;-1.304;2023-05-07T06:13:24;6.47;;;3.38;;
73816;SDS011;62146;53.232;-1.304;2023-05-07T06:15:52;7.03;;;3.37;;
73816;SDS011;62146;53.232;-1.304;2023-05-07T06:18:18;5.47;;;3.10;;
73816;SDS011;62146;53.232;-1.304;2023-05-07T06:20:45;5.50;;;3.42;;
73816;SDS011;62146;53.232;-1.304;2023-05-07T06:23:11;6.30;;;3.55;;
73816;SDS011;62146;53.232;-1.304;2023-05-07T06:25:38;6.75;;;3.63;;
73816;SDS011;62146;53.232;-1.304;2023-05-07T06:28:05;5.53;;;3.27;;
73816;SDS011;62146;53.232;-1.304;2023-05-07T06:30:32;6.47;;;3.50;;
73816;SDS011;62146;53.232;-1.304;2023-05-07T06:32:58;5.13;;;2.80;;
73816;SDS011;62146;53.232;-1.304;2023-05-07T06:35:25;6.47;;;3.10;;
73816;SDS011;62146;53.232;-1.304;2023-05-07T06:37:52;5.88;;;3.20;;
73816;SDS011;62146;53.232;-1.304;2023-05-07T06:40:18;6.13;;;3.07;;
73816;SDS011;62146;53.232;-1.304;2023-05-07T06:42:45;6.00;;;3.40;;
73816;SDS011;62146;53.232;-1.304;2023-05-07T06:45:11;5.93;;;3.40;;
73816;SDS011;62146;53.232;-1.304;2023-05-07T06:47:38;6.30;;;3.20;;
73816;SDS011;62146;53.232;-1.304;2023-05-07T06:50:04;6.68;;;3.70;;
73816;SDS011;62146;53.232;-1.304;2023-05-07T06:52:31;5.90;;;3.40;;
73816;SDS011;62146;53.232;-1.304;2023-05-07T06:54:58;7.47;;;3.33;;
73816;SDS011;62146;53.232;-1.304;2023-05-07T06:57:24;6.68;;;3.35;;
73816;SDS011;62146;53.232;-1.304;2023-05-07T06:59:51;6.03;;;3.15;;
73816;SDS011;62146;53.232;-1.304;2023-05-07T07:02:18;6.90;;;3.88;;
73816;SDS011;62146;53.232;-1.304;2023-05-07T07:04:44;6.07;;;3.40;;
73816;SDS011;62146;53.232;-1.304;2023-05-07T07:07:11;6.35;;;3.60;;
73816;SDS011;62146;53.232;-1.304;2023-05-07T07:09:38;6.28;;;3.55;;
73816;SDS011;62146;53.232;-1.304;2023-05-07T07:12:04;7.05;;;3.90;;
73816;SDS011;62146;53.232;-1.304;2023-05-07T07:14:31;7.40;;;4.05;;
73816;SDS011;62146;53.232;-1.304;2023-05-07T07:16:58;7.33;;;3.50;;
73816;SDS011;62146;53.232;-1.304;2023-05-07T07:19:25;7.05;;;4.07;;
73816;SDS011;62146;53.232;-1.304;2023-05-07T07:21:52;6.85;;;3.90;;
73816;SDS011;62146;53.232;-1.304;2023-05-07T07:24:19;6.80;;;3.85;;
73816;SDS011;62146;53.232;-1.304;2023-05-07T07:26:47;6.57;;;3.88;;
73816;SDS011;62146;53.232;-1.304;2023-05-07T07:29:14;7.70;;;3.70;;
73816;SDS011;62146;53.232;-1.304;2023-05-07T07:31:40;6.75;;;3.72;;
73816;SDS011;62146;53.232;-1.304;2023-05-07T07:34:07;6.30;;;3.72;;
73816;SDS011;62146;53.232;-1.304;2023-05-07T07:36:33;6.90;;;3.92;;
73816;SDS011;62146;53.232;-1.304;2023-05-07T07:39:11;7.10;;;3.90;;
73816;SDS011;62146;53.232;-1.304;2023-05-07T07:41:38;6.27;;;3.50;;
73816;SDS011;62146;53.232;-1.304;2023-05-07T07:44:04;6.60;;;3.67;;
73816;SDS011;62146;53.232;-1.304;2023-05-07T07:46:33;6.07;;;3.30;;
73816;SDS011;62146;53.232;-1.304;2023-05-07T07:49:01;6.03;;;3.30;;
73816;SDS011;62146;53.232;-1.304;2023-05-07T07:51:27;7.28;;;3.60;;
73816;SDS011;62146;53.232;-1.304;2023-05-07T07:53:54;8.07;;;3.73;;
73816;SDS011;62146;53.232;-1.304;2023-05-07T07:56:20;7.05;;;3.47;;
73816;SDS011;62146;53.232;-1.304;2023-05-07T07:58:47;7.40;;;3.67;;
73816;SDS011;62146;53.232;-1.304;2023-05-07T08:01:13;5.97;;;3.30;;
73816;SDS011;62146;53.232;-1.304;2023-05-07T08:03:40;6.47;;;3.42;;
73816;SDS011;62146;53.232;-1.304;2023-05-07T08:06:07;5.87;;;3.20;;
73816;SDS011;62146;53.232;-1.304;2023-05-07T08:08:34;5.70;;;3.40;;
73816;SDS011;62146;53.232;-1.304;2023-05-07T08:11:00;6.07;;;3.60;;
73816;SDS011;62146;53.232;-1.304;2023-05-07T08:13:27;5.72;;;3.40;;
73816;SDS011;62146;53.232;-1.304;2023-05-07T08:15:54;6.32;;;3.33;;
73816;SDS011;62146;53.232;-1.304;2023-05-07T08:18:20;5.30;;;2.97;;
73816;SDS011;62146;53.232;-1.304;2023-05-07T08:20:47;6.93;;;3.50;;
73816;SDS011;62146;53.232;-1.304;2023-05-07T08:23:13;6.82;;;3.65;;
73816;SDS011;62146;53.232;-1.304;2023-05-07T08:25:40;5.30;;;3.30;;
73816;SDS011;62146;53.232;-1.304;2023-05-07T08:28:08;5.78;;;3.03;;
73816;SDS011;62146;53.232;-1.304;2023-05-07T08:30:35;6.00;;;3.30;;
73816;SDS011;62146;53.232;-1.304;2023-05-07T08:33:02;5.18;;;2.92;;
73816;SDS011;62146;53.232;-1.304;2023-05-07T08:35:29;4.97;;;3.00;;
73816;SDS011;62146;53.232;-1.304;2023-05-07T08:37:55;6.18;;;3.15;;
73816;SDS011;62146;53.232;-1.304;2023-05-07T08:40:26;5.47;;;3.30;;
73816;SDS011;62146;53.232;-1.304;2023-05-07T08:42:53;5.10;;;3.00;;
73816;SDS011;62146;53.232;-1.304;2023-05-07T08:45:20;5.15;;;2.90;;
73816;SDS011;62146;53.232;-1.304;2023-05-07T08:47:47;5.13;;;2.88;;
73816;SDS011;62146;53.232;-1.304;2023-05-07T08:50:18;5.53;;;2.97;;
73816;SDS011;62146;53.232;-1.304;2023-05-07T08:52:47;6.50;;;2.97;;
73816;SDS011;62146;53.232;-1.304;2023-05-07T08:55:14;4.57;;;2.60;;
73816;SDS011;62146;53.232;-1.304;2023-05-07T08:57:41;6.20;;;2.92;;
73816;SDS011;62146;53.232;-1.304;2023-05-07T09:00:08;6.97;;;2.70;;
73816;SDS011;62146;53.232;-1.304;2023-05-07T09:02:36;6.25;;;2.90;;
73816;SDS011;62146;53.232;-1.304;2023-05-07T09:05:03;5.82;;;2.60;;
73816;SDS011;62146;53.232;-1.304;2023-05-07T09:07:30;4.47;;;2.33;;
73816;SDS011;62146;53.232;-1.304;2023-05-07T09:09:57;5.10;;;2.42;;
73816;SDS011;62146;53.232;-1.304;2023-05-07T09:12:24;4.95;;;2.60;;
73816;SDS011;62146;53.232;-1.304;2023-05-07T09:14:50;4.60;;;2.70;;
73816;SDS011;62146;53.232;-1.304;2023-05-07T09:17:17;6.05;;;2.75;;
73816;SDS011;62146;53.232;-1.304;2023-05-07T09:19:44;5.00;;;2.63;;
73816;SDS011;62146;53.232;-1.304;2023-05-07T09:22:14;6.70;;;2.70;;
73816;SDS011;62146;53.232;-1.304;2023-05-07T09:24:41;4.60;;;2.58;;
73816;SDS011;62146;53.232;-1.304;2023-05-07T09:27:13;4.63;;;2.70;;
73816;SDS011;62146;53.232;-1.304;2023-05-07T09:29:40;4.95;;;2.63;;
73816;SDS011;62146;53.232;-1.304;2023-05-07T09:32:08;5.87;;;2.87;;
73816;SDS011;62146;53.232;-1.304;2023-05-07T09:34:35;4.93;;;2.70;;
73816;SDS011;62146;53.232;-1.304;2023-05-07T09:37:02;4.97;;;2.70;;
73816;SDS011;62146;53.232;-1.304;2023-05-07T09:39:40;4.95;;;2.75;;
73816;SDS011;62146;53.232;-1.304;2023-05-07T09:42:07;5.03;;;2.70;;
73816;SDS011;62146;53.232;-1.304;2023-05-07T09:44:34;4.90;;;2.90;;
73816;SDS011;62146;53.232;-1.304;2023-05-07T09:47:01;5.38;;;2.95;;
73816;SDS011;62146;53.232;-1.304;2023-05-07T09:49:33;4.85;;;2.72;;
73816;SDS011;62146;53.232;-1.304;2023-05-07T09:52:02;6.55;;;2.80;;
73816;SDS011;62146;53.232;-1.304;2023-05-07T09:54:32;4.82;;;2.97;;
73816;SDS011;62146;53.232;-1.304;2023-05-07T09:57:01;6.23;;;3.10;;
73816;SDS011;62146;53.232;-1.304;2023-05-07T09:59:29;4.82;;;2.97;;
73816;SDS011;62146;53.232;-1.304;2023-05-07T10:01:57;4.90;;;3.17;;
73816;SDS011;62146;53.232;-1.304;2023-05-07T10:04:28;4.90;;;2.88;;
73816;SDS011;62146;53.232;-1.304;2023-05-07T10:06:56;4.93;;;3.30;;
73816;SDS011;62146;53.232;-1.304;2023-05-07T10:09:25;6.70;;;3.10;;
73816;SDS011;62146;53.232;-1.304;2023-05-07T10:11:52;6.28;;;3.60;;
73816;SDS011;62146;53.232;-1.304;2023-05-07T10:14:21;6.07;;;3.00;;
73816;SDS011;62146;53.232;-1.304;2023-05-07T10:16:47;4.47;;;2.90;;
73816;SDS011;62146;53.232;-1.304;2023-05-07T10:19:15;5.60;;;3.42;;
73816;SDS011;62146;53.232;-1.304;2023-05-07T10:21:48;6.07;;;3.80;;
73816;SDS011;62146;53.232;-1.304;2023-05-07T10:24:21;5.88;;;3.50;;
73816;SDS011;62146;53.232;-1.304;2023-05-07T10:26:52;5.85;;;3.70;;
73816;SDS011;62146;53.232;-1.304;2023-05-07T10:29:28;4.97;;;3.38;;
73816;SDS011;62146;53.232;-1.304;2023-05-07T10:35:10;6.33;;;3.40;;
73816;SDS011;62146;53.232;-1.304;2023-05-07T10:37:41;5.57;;;3.33;;
73816;SDS011;62146;53.232;-1.304;2023-05-07T10:40:08;5.57;;;3.70;;
73816;SDS011;62146;53.232;-1.304;2023-05-07T10:42:36;6.38;;;3.60;;
73816;SDS011;62146;53.232;-1.304;2023-05-07T10:45:14;6.45;;;3.75;;
73816;SDS011;62146;53.232;-1.304;2023-05-07T10:51:17;5.85;;;3.65;;
73816;SDS011;62146;53.232;-1.304;2023-05-07T10:53:45;5.63;;;3.60;;
73816;SDS011;62146;53.232;-1.304;2023-05-07T10:58:45;7.38;;;3.70;;
73816;SDS011;62146;53.232;-1.304;2023-05-07T11:01:11;6.10;;;3.43;;
73816;SDS011;62146;53.232;-1.304;2023-05-07T11:06:41;7.05;;;4.10;;
73816;SDS011;62146;53.232;-1.304;2023-05-07T11:09:07;5.88;;;3.83;;
73816;SDS011;62146;53.232;-1.304;2023-05-07T11:11:44;5.30;;;3.55;;
73816;SDS011;62146;53.232;-1.304;2023-05-07T11:14:14;6.37;;;3.90;;
73816;SDS011;62146;53.232;-1.304;2023-05-07T11:17:02;6.05;;;3.83;;
73816;SDS011;62146;53.232;-1.304;2023-05-07T11:22:35;6.43;;;3.58;;
73816;SDS011;62146;53.232;-1.304;2023-05-07T11:25:06;5.65;;;3.50;;
73816;SDS011;62146;53.232;-1.304;2023-05-07T11:27:33;5.83;;;3.63;;
73816;SDS011;62146;53.232;-1.304;2023-05-07T11:30:00;6.25;;;3.80;;
73816;SDS011;62146;53.232;-1.304;2023-05-07T11:32:30;5.88;;;3.53;;
73816;SDS011;62146;53.232;-1.304;2023-05-07T11:34:58;5.35;;;3.45;;
73816;SDS011;62146;53.232;-1.304;2023-05-07T11:37:26;6.70;;;3.28;;
73816;SDS011;62146;53.232;-1.304;2023-05-07T11:40:02;5.20;;;3.50;;
73816;SDS011;62146;53.232;-1.304;2023-05-07T11:42:40;6.60;;;3.47;;
73816;SDS011;62146;53.232;-1.304;2023-05-07T11:45:09;5.15;;;3.08;;
73816;SDS011;62146;53.232;-1.304;2023-05-07T11:47:36;5.50;;;3.45;;
73816;SDS011;62146;53.232;-1.304;2023-05-07T11:50:04;5.53;;;3.42;;
73816;SDS011;62146;53.232;-1.304;2023-05-07T11:52:33;6.10;;;3.13;;
73816;SDS011;62146;53.232;-1.304;2023-05-07T11:55:01;5.35;;;3.30;;
73816;SDS011;62146;53.232;-1.304;2023-05-07T11:57:29;5.82;;;3.40;;
73816;SDS011;62146;53.232;-1.304;2023-05-07T11:59:56;6.03;;;3.28;;
73816;SDS011;62146;53.232;-1.304;2023-05-07T12:02:24;4.63;;;2.97;;
73816;SDS011;62146;53.232;-1.304;2023-05-07T12:04:52;4.87;;;2.90;;
73816;SDS011;62146;53.232;-1.304;2023-05-07T12:07:20;5.78;;;3.00;;
73816;SDS011;62146;53.232;-1.304;2023-05-07T12:09:47;7.10;;;3.50;;
73816;SDS011;62146;53.232;-1.304;2023-05-07T12:12:14;4.60;;;2.90;;
73816;SDS011;62146;53.232;-1.304;2023-05-07T12:14:42;5.20;;;3.22;;
73816;SDS011;62146;53.232;-1.304;2023-05-07T12:17:10;6.60;;;3.07;;
73816;SDS011;62146;53.232;-1.304;2023-05-07T12:19:39;5.53;;;3.00;;
73816;SDS011;62146;53.232;-1.304;2023-05-07T12:22:07;5.20;;;2.75;;
73816;SDS011;62146;53.232;-1.304;2023-05-07T12:25:08;6.53;;;3.17;;
73816;SDS011;62146;53.232;-1.304;2023-05-07T12:27:28;5.45;;;3.00;;
73816;SDS011;62146;53.232;-1.304;2023-05-07T12:29:56;5.37;;;2.60;;
73816;SDS011;62146;53.232;-1.304;2023-05-07T12:32:24;5.38;;;2.95;;
73816;SDS011;62146;53.232;-1.304;2023-05-07T12:34:51;5.65;;;2.72;;
73816;SDS011;62146;53.232;-1.304;2023-05-07T12:37:22;4.90;;;2.47;;
73816;SDS011;62146;53.232;-1.304;2023-05-07T12:40:09;6.05;;;2.63;;
73816;SDS011;62146;53.232;-1.304;2023-05-07T12:42:38;5.03;;;2.47;;
73816;SDS011;62146;53.232;-1.304;2023-05-07T12:47:36;5.10;;;2.33;;
73816;SDS011;62146;53.232;-1.304;2023-05-07T12:50:07;5.60;;;2.40;;
73816;SDS011;62146;53.232;-1.304;2023-05-07T12:52:33;4.05;;;2.20;;
73816;SDS011;62146;53.232;-1.304;2023-05-07T12:55:07;4.67;;;2.57;;
73816;SDS011;62146;53.232;-1.304;2023-05-07T12:57:38;4.25;;;2.28;;
73816;SDS011;62146;53.232;-1.304;2023-05-07T13:00:06;4.55;;;2.10;;
73816;SDS011;62146;53.232;-1.304;2023-05-07T13:02:34;4.95;;;2.17;;
73816;SDS011;62146;53.232;-1.304;2023-05-07T13:05:03;5.07;;;2.00;;
73816;SDS011;62146;53.232;-1.304;2023-05-07T13:07:31;4.17;;;2.07;;
73816;SDS011;62146;53.232;-1.304;2023-05-07T13:09:57;4.85;;;1.90;;
73816;SDS011;62146;53.232;-1.304;2023-05-07T13:12:24;4.60;;;2.00;;
73816;SDS011;62146;53.232;-1.304;2023-05-07T13:14:50;4.53;;;2.00;;
73816;SDS011;62146;53.232;-1.304;2023-05-07T13:17:17;4.10;;;2.00;;
73816;SDS011;62146;53.232;-1.304;2023-05-07T13:19:44;4.80;;;2.20;;
73816;SDS011;62146;53.232;-1.304;2023-05-07T13:22:11;4.63;;;1.80;;
73816;SDS011;62146;53.232;-1.304;2023-05-07T13:24:38;5.55;;;2.33;;
73816;SDS011;62146;53.232;-1.304;2023-05-07T13:27:07;4.05;;;1.98;;
73816;SDS011;62146;53.232;-1.304;2023-05-07T13:29:34;5.60;;;2.17;;
73816;SDS011;62146;53.232;-1.304;2023-05-07T13:32:00;4.50;;;1.93;;
73816;SDS011;62146;53.232;-1.304;2023-05-07T13:34:27;3.75;;;1.80;;
73816;SDS011;62146;53.232;-1.304;2023-05-07T13:36:54;4.32;;;1.70;;
73816;SDS011;62146;53.232;-1.304;2023-05-07T13:39:21;3.50;;;1.58;;
73816;SDS011;62146;53.232;-1.304;2023-05-07T13:41:48;5.18;;;1.95;;
73816;SDS011;62146;53.232;-1.304;2023-05-07T13:44:14;5.27;;;1.73;;
73816;SDS011;62146;53.232;-1.304;2023-05-07T13:46:41;4.90;;;1.70;;
73816;SDS011;62146;53.232;-1.304;2023-05-07T13:49:07;4.43;;;2.00;;
73816;SDS011;62146;53.232;-1.304;2023-05-07T13:51:34;3.80;;;1.70;;
73816;SDS011;62146;53.232;-1.304;2023-05-07T13:54:00;5.13;;;1.70;;
73816;SDS011;62146;53.232;-1.304;2023-05-07T13:56:27;4.60;;;1.60;;
73816;SDS011;62146;53.232;-1.304;2023-05-07T13:58:54;3.70;;;1.55;;
73816;SDS011;62146;53.232;-1.304;2023-05-07T14:01:26;4.18;;;1.60;;
73816;SDS011;62146;53.232;-1.304;2023-05-07T14:03:53;4.53;;;1.80;;
73816;SDS011;62146;53.232;-1.304;2023-05-07T14:06:19;4.88;;;1.67;;
73816;SDS011;62146;53.232;-1.304;2023-05-07T14:08:46;4.20;;;1.70;;
73816;SDS011;62146;53.232;-1.304;2023-05-07T14:11:12;3.60;;;1.60;;
73816;SDS011;62146;53.232;-1.304;2023-05-07T14:13:39;3.95;;;1.60;;
73816;SDS011;62146;53.232;-1.304;2023-05-07T14:16:05;4.30;;;1.50;;
73816;SDS011;62146;53.232;-1.304;2023-05-07T14:18:32;3.97;;;1.60;;
73816;SDS011;62146;53.232;-1.304;2023-05-07T14:21:00;4.17;;;1.47;;
73816;SDS011;62146;53.232;-1.304;2023-05-07T14:23:27;4.03;;;1.60;;
73816;SDS011;62146;53.232;-1.304;2023-05-07T14:25:53;3.92;;;1.60;;
73816;SDS011;62146;53.232;-1.304;2023-05-07T14:28:21;3.53;;;1.38;;
73816;SDS011;62146;53.232;-1.304;2023-05-07T14:30:48;3.40;;;1.40;;
73816;SDS011;62146;53.232;-1.304;2023-05-07T14:33:15;3.90;;;1.40;;
73816;SDS011;62146;53.232;-1.304;2023-05-07T14:35:42;3.70;;;1.40;;
73816;SDS011;62146;53.232;-1.304;2023-05-07T14:38:13;3.72;;;1.40;;
73816;SDS011;62146;53.232;-1.304;2023-05-07T14:40:40;4.25;;;1.52;;
73816;SDS011;62146;53.232;-1.304;2023-05-07T14:43:07;3.55;;;1.38;;
73816;SDS011;62146;53.232;-1.304;2023-05-07T14:45:33;3.60;;;1.30;;
73816;SDS011;62146;53.232;-1.304;2023-05-07T14:48:00;3.50;;;1.58;;
73816;SDS011;62146;53.232;-1.304;2023-05-07T14:50:27;4.07;;;1.52;;
73816;SDS011;62146;53.232;-1.304;2023-05-07T14:52:53;3.90;;;1.45;;